Mega Smeralda — ICIU — position and weather

sailwx.info

Track history (hours):
 
Tides and Currents Weather Stations Pressure Air Temp Water Temp Dewpoint Dewpoint Depression Visibility Wind Speed Wind Dir Waves Ship Positions

Mega Smeralda

Last reported at 2015-May-23 12:33 UTC. Time now 2015-May-23 13:25 UTC.
Position N 43°59' E 008°43'.

Length 171 m; draft 6.4 m.

Type: Passenger vessel. MMSI: 247228600.

Date/timePositionNaut miles runAvg speedWind from/ knotsBaromVisibWave heightAir tempDewpointWater temp
2015-May-23 12:33N 43°59' E 008°43'1918.8
2015-May-23 11:32N 44°15' E 008°29'1 1.2
2015-May-23 10:33N 44°16' E 008°27'1414.1
2015-May-23 09:33N 44°05' E 008°40'2020.3
2015-May-23 08:33N 43°48' E 008°54'2019.7
2015-May-23 07:33N 43°30' E 009°07'2019.8
2015-May-23 06:33N 43°13' E 009°20'14 3.6
2015-May-23 02:33N 43°01' E 009°30'1818.3
2015-May-23 01:33N 43°04' E 009°06'4019.4
2015-May-22 23:29N 43°01' E 008°11'1819.3
2015-May-22 22:34N 43°00' E 007°47'2019.6
2015-May-22 21:34N 42°59' E 007°20'2019.7
2015-May-22 20:33N 42°58' E 006°53'1918.9
2015-May-22 19:33N 42°57' E 006°27'2017.3
2015-May-22 18:24N 43°02' E 006°01'6 7.1
2015-May-22 17:33N 43°07' E 005°56'0 0.0
2015-May-22 16:33N 43°07' E 005°56'0 0.1
2015-May-22 15:33N 43°07' E 005°56'11 0.6
2015-May-21 20:12N 42°58' E 006°04'1014.8
2015-May-21 19:33N 43°05' E 005°56'2 1.7
2015-May-21 18:33N 43°07' E 005°56'0 0.0
2015-May-21 17:34N 43°07' E 005°56'0 0.0
2015-May-21 16:33N 43°07' E 005°56'0 0.0
2015-May-21 15:33N 43°07' E 005°56'0 0.0
2015-May-21 14:33N 43°07' E 005°56'0 0.0
2015-May-21 13:33N 43°07' E 005°56'0 0.0
2015-May-21 12:33N 43°07' E 005°56'0 0.0
2015-May-21 11:34N 43°07' E 005°56'0 0.0
2015-May-21 10:33N 43°07' E 005°56'0 0.0
2015-May-21 09:34N 43°07' E 005°56'0 0.0
2015-May-21 08:33N 43°07' E 005°56'0 0.0
2015-May-21 07:33N 43°07' E 005°56'0 0.0
2015-May-21 06:34N 43°07' E 005°56'0 0.0
2015-May-21 05:33N 43°07' E 005°56'2 2.1
2015-May-21 04:33N 43°05' E 005°58'96 3.6
2015-May-20 01:33N 42°12' E 007°46'1916.6
2015-May-20 00:26N 42°22' E 007°25'7016.4
2015-May-19 20:09N 42°58' E 006°03'915.0
2015-May-19 19:33N 43°05' E 005°57'2 1.8
2015-May-19 18:33N 43°07' E 005°56'0 0.0
2015-May-19 17:34N 43°07' E 005°56'0 0.0
2015-May-19 16:33N 43°07' E 005°56'0 0.0
2015-May-19 15:33N 43°07' E 005°56'0 0.0
2015-May-19 14:33N 43°07' E 005°56'0 0.0
2015-May-19 13:33N 43°07' E 005°56'0 0.0
2015-May-19 12:33N 43°07' E 005°56'0 0.0
2015-May-19 11:33N 43°07' E 005°56'0 0.0
2015-May-19 10:33N 43°07' E 005°56'0 0.0
2015-May-19 09:33N 43°07' E 005°56'0 0.0
2015-May-19 08:33N 43°07' E 005°56'0 0.0
2015-May-19 07:33N 43°07' E 005°56'0 0.0
2015-May-19 06:33N 43°07' E 005°56'0 0.0
2015-May-19 05:33N 43°07' E 005°56'4 4.0
2015-May-19 04:32N 43°04' E 005°59'1512.2
2015-May-19 03:20N 42°54' E 006°14'1113.5
2015-May-19 02:33N 42°48' E 006°26'1413.1
2015-May-19 01:31N 42°41' E 006°42'1212.9
2015-May-19 00:33N 42°34' E 006°55'1313.0
2015-May-18 23:33N 42°27' E 007°11'1613.1
2015-May-18 22:19N 42°18' E 007°29'1013.3
2015-May-18 21:33N 42°13' E 007°41'1614.1
2015-May-18 20:24N 42°04' E 007°59'105 8.0
2015-May-18 07:24N 43°02' E 006°00'6 7.6
2015-May-18 06:34N 43°07' E 005°56'0 0.0
2015-May-18 05:33N 43°07' E 005°56'5 4.7
2015-May-18 04:32N 43°03' E 005°59'13416.9
2015-May-17 20:34N 43°03' E 009°03'1717.0
2015-May-17 19:34N 43°03' E 009°27'1616.1
2015-May-17 18:34N 42°47' E 009°32'1 0.1
2015-May-17 05:32N 42°46' E 009°32'1914.6
2015-May-17 04:14N 43°04' E 009°22'14718.2
2015-May-16 20:09N 43°01' E 006°01'712.5
2015-May-16 19:33N 43°07' E 005°56'0 0.0
2015-May-16 18:33N 43°07' E 005°56'4814.1
2015-May-16 15:07N 43°21' E 006°59'1220.8
2015-May-16 14:33N 43°30' E 007°10'13 9.8
2015-May-16 13:15N 43°42' E 007°17'4516.8
2015-May-16 10:33N 43°22' E 008°14'1919.1
2015-May-16 09:33N 43°17' E 008°39'1919.2
2015-May-16 08:33N 43°10' E 009°04'1919.1
2015-May-16 07:33N 43°02' E 009°27'11 2.1
2015-May-16 02:31N 43°04' E 009°13'14117.7
2015-May-15 18:33N 43°03' E 006°00'5 5.3
2015-May-15 17:33N 43°07' E 005°56'0 0.0
2015-May-15 16:33N 43°07' E 005°56'0 0.0
2015-May-15 15:34N 43°07' E 005°56'0 0.0
2015-May-15 14:33N 43°07' E 005°56'0 0.0
2015-May-15 13:33N 43°07' E 005°56'0 0.0
2015-May-15 12:33N 43°07' E 005°56'0 0.0
2015-May-15 11:33N 43°07' E 005°56'0 0.0
2015-May-15 10:33N 43°07' E 005°56'0 0.0
2015-May-15 09:33N 43°07' E 005°56'0 0.0
2015-May-15 08:33N 43°07' E 005°56'0 0.0
2015-May-15 07:33N 43°07' E 005°56'0 0.0
2015-May-15 06:33N 43°07' E 005°56'0 0.0
2015-May-15 05:33N 43°07' E 005°56'13817.3
2015-May-14 21:33N 43°03' E 009°05'35 7.8
2015-May-14 17:05N 42°46' E 009°47'1019.5
2015-May-14 16:33N 42°49' E 010°00'1414.3
2015-May-14 15:32N 42°49' E 010°20'0 0.1
2015-May-14 14:33N 42°49' E 010°20'0 0.0
2015-May-14 13:27N 42°49' E 010°20'0 0.0
2015-May-14 12:29N 42°49' E 010°20'0 0.0
2015-May-14 11:33N 42°49' E 010°20'0 0.0
2015-May-14 10:23N 42°49' E 010°20'0 0.0
2015-May-14 09:33N 42°49' E 010°20'5 5.1
2015-May-14 08:29N 42°52' E 010°14'1819.2
2015-May-14 07:33N 42°49' E 009°50'15 5.1
2015-May-14 04:33N 42°43' E 009°30'2116.3
2015-May-14 03:17N 43°03' E 009°24'8319.9
2015-May-13 23:07N 42°58' E 007°30'1520.1
2015-May-13 22:23N 42°57' E 007°10'4519.5
2015-May-13 20:06N 42°56' E 006°09'1019.3
2015-May-13 19:34N 43°04' E 005°59'4 4.3
2015-May-13 18:33N 43°07' E 005°56'0 0.0
2015-May-13 17:33N 43°07' E 005°56'0 0.0
2015-May-13 16:33N 43°07' E 005°56'0 0.0
2015-May-13 15:33N 43°07' E 005°56'0 0.0
2015-May-13 14:34N 43°07' E 005°56'0 0.0
2015-May-13 13:33N 43°07' E 005°56'  
Track history (hours):
 
Tides and Currents Weather Stations Pressure Air Temp Water Temp Dewpoint Dewpoint Depression Visibility Wind Speed Wind Dir Waves Ship Positions

Mega Smeralda

Last reported at 2015-May-23 12:33 UTC. Time now 2015-May-23 13:25 UTC.
Position N 43°59' E 008°43'.

Length 171 m; draft 6.4 m.

Type: Passenger vessel. MMSI: 247228600.

Date/timePositionNaut miles runAvg speedWind from/ knotsBaromVisibWave heightAir tempDewpointWater temp
2015-May-23 12:33N 43°59' E 008°43'1918.8
2015-May-23 11:32N 44°15' E 008°29'1 1.2
2015-May-23 10:33N 44°16' E 008°27'1414.1
2015-May-23 09:33N 44°05' E 008°40'2020.3
2015-May-23 08:33N 43°48' E 008°54'2019.7
2015-May-23 07:33N 43°30' E 009°07'2019.8
2015-May-23 06:33N 43°13' E 009°20'14 3.6
2015-May-23 02:33N 43°01' E 009°30'1818.3
2015-May-23 01:33N 43°04' E 009°06'4019.4
2015-May-22 23:29N 43°01' E 008°11'1819.3
2015-May-22 22:34N 43°00' E 007°47'2019.6
2015-May-22 21:34N 42°59' E 007°20'2019.7
2015-May-22 20:33N 42°58' E 006°53'1918.9
2015-May-22 19:33N 42°57' E 006°27'2017.3
2015-May-22 18:24N 43°02' E 006°01'6 7.1
2015-May-22 17:33N 43°07' E 005°56'0 0.0
2015-May-22 16:33N 43°07' E 005°56'0 0.1
2015-May-22 15:33N 43°07' E 005°56'11 0.6
2015-May-21 20:12N 42°58' E 006°04'1014.8
2015-May-21 19:33N 43°05' E 005°56'2 1.7
2015-May-21 18:33N 43°07' E 005°56'0 0.0
2015-May-21 17:34N 43°07' E 005°56'0 0.0
2015-May-21 16:33N 43°07' E 005°56'0 0.0
2015-May-21 15:33N 43°07' E 005°56'0 0.0
2015-May-21 14:33N 43°07' E 005°56'0 0.0
2015-May-21 13:33N 43°07' E 005°56'0 0.0
2015-May-21 12:33N 43°07' E 005°56'0 0.0
2015-May-21 11:34N 43°07' E 005°56'0 0.0
2015-May-21 10:33N 43°07' E 005°56'0 0.0
2015-May-21 09:34N 43°07' E 005°56'0 0.0
2015-May-21 08:33N 43°07' E 005°56'0 0.0
2015-May-21 07:33N 43°07' E 005°56'0 0.0
2015-May-21 06:34N 43°07' E 005°56'0 0.0
2015-May-21 05:33N 43°07' E 005°56'2 2.1
2015-May-21 04:33N 43°05' E 005°58'96 3.6
2015-May-20 01:33N 42°12' E 007°46'1916.6
2015-May-20 00:26N 42°22' E 007°25'7016.4
2015-May-19 20:09N 42°58' E 006°03'915.0
2015-May-19 19:33N 43°05' E 005°57'2 1.8
2015-May-19 18:33N 43°07' E 005°56'0 0.0
2015-May-19 17:34N 43°07' E 005°56'0 0.0
2015-May-19 16:33N 43°07' E 005°56'0 0.0
2015-May-19 15:33N 43°07' E 005°56'0 0.0
2015-May-19 14:33N 43°07' E 005°56'0 0.0
2015-May-19 13:33N 43°07' E 005°56'0 0.0
2015-May-19 12:33N 43°07' E 005°56'0 0.0
2015-May-19 11:33N 43°07' E 005°56'0 0.0
2015-May-19 10:33N 43°07' E 005°56'0 0.0
2015-May-19 09:33N 43°07' E 005°56'0 0.0
2015-May-19 08:33N 43°07' E 005°56'0 0.0
2015-May-19 07:33N 43°07' E 005°56'0 0.0
2015-May-19 06:33N 43°07' E 005°56'0 0.0
2015-May-19 05:33N 43°07' E 005°56'4 4.0
2015-May-19 04:32N 43°04' E 005°59'1512.2
2015-May-19 03:20N 42°54' E 006°14'1113.5
2015-May-19 02:33N 42°48' E 006°26'1413.1
2015-May-19 01:31N 42°41' E 006°42'1212.9
2015-May-19 00:33N 42°34' E 006°55'1313.0
2015-May-18 23:33N 42°27' E 007°11'1613.1
2015-May-18 22:19N 42°18' E 007°29'1013.3
2015-May-18 21:33N 42°13' E 007°41'1614.1
2015-May-18 20:24N 42°04' E 007°59'105 8.0
2015-May-18 07:24N 43°02' E 006°00'6 7.6
2015-May-18 06:34N 43°07' E 005°56'0 0.0
2015-May-18 05:33N 43°07' E 005°56'5 4.7
2015-May-18 04:32N 43°03' E 005°59'13416.9
2015-May-17 20:34N 43°03' E 009°03'1717.0
2015-May-17 19:34N 43°03' E 009°27'1616.1
2015-May-17 18:34N 42°47' E 009°32'1 0.1
2015-May-17 05:32N 42°46' E 009°32'1914.6
2015-May-17 04:14N 43°04' E 009°22'14718.2
2015-May-16 20:09N 43°01' E 006°01'712.5
2015-May-16 19:33N 43°07' E 005°56'0 0.0
2015-May-16 18:33N 43°07' E 005°56'4814.1
2015-May-16 15:07N 43°21' E 006°59'1220.8
2015-May-16 14:33N 43°30' E 007°10'13 9.8
2015-May-16 13:15N 43°42' E 007°17'4516.8
2015-May-16 10:33N 43°22' E 008°14'1919.1
2015-May-16 09:33N 43°17' E 008°39'1919.2
2015-May-16 08:33N 43°10' E 009°04'1919.1
2015-May-16 07:33N 43°02' E 009°27'11 2.1
2015-May-16 02:31N 43°04' E 009°13'14117.7
2015-May-15 18:33N 43°03' E 006°00'5 5.3
2015-May-15 17:33N 43°07' E 005°56'0 0.0
2015-May-15 16:33N 43°07' E 005°56'0 0.0
2015-May-15 15:34N 43°07' E 005°56'0 0.0
2015-May-15 14:33N 43°07' E 005°56'0 0.0
2015-May-15 13:33N 43°07' E 005°56'0 0.0
2015-May-15 12:33N 43°07' E 005°56'0 0.0
2015-May-15 11:33N 43°07' E 005°56'0 0.0
2015-May-15 10:33N 43°07' E 005°56'0 0.0
2015-May-15 09:33N 43°07' E 005°56'0 0.0
2015-May-15 08:33N 43°07' E 005°56'0 0.0
2015-May-15 07:33N 43°07' E 005°56'0 0.0
2015-May-15 06:33N 43°07' E 005°56'0 0.0
2015-May-15 05:33N 43°07' E 005°56'13817.3
2015-May-14 21:33N 43°03' E 009°05'35 7.8
2015-May-14 17:05N 42°46' E 009°47'1019.5
2015-May-14 16:33N 42°49' E 010°00'1414.3
2015-May-14 15:32N 42°49' E 010°20'0 0.1
2015-May-14 14:33N 42°49' E 010°20'0 0.0
2015-May-14 13:27N 42°49' E 010°20'0 0.0
2015-May-14 12:29N 42°49' E 010°20'0 0.0
2015-May-14 11:33N 42°49' E 010°20'0 0.0
2015-May-14 10:23N 42°49' E 010°20'0 0.0
2015-May-14 09:33N 42°49' E 010°20'5 5.1
2015-May-14 08:29N 42°52' E 010°14'1819.2
2015-May-14 07:33N 42°49' E 009°50'15 5.1
2015-May-14 04:33N 42°43' E 009°30'2116.3
2015-May-14 03:17N 43°03' E 009°24'8319.9
2015-May-13 23:07N 42°58' E 007°30'1520.1
2015-May-13 22:23N 42°57' E 007°10'4519.5
2015-May-13 20:06N 42°56' E 006°09'1019.3
2015-May-13 19:34N 43°04' E 005°59'4 4.3
2015-May-13 18:33N 43°07' E 005°56'0 0.0
2015-May-13 17:33N 43°07' E 005°56'0 0.0
2015-May-13 16:33N 43°07' E 005°56'0 0.0
2015-May-13 15:33N 43°07' E 005°56'0 0.0
2015-May-13 14:34N 43°07' E 005°56'0 0.0
2015-May-13 13:33N 43°07' E 005°56'  

Dump ship's entire track history